sensor_id;sensor_type;location;lat;lon;timestamp;P1;durP1;ratioP1;P2;durP2;ratioP2
5553;SDS011;2800;49.528;8.666;2022-08-21T00:00:16;6.40;;;4.00;;
5553;SDS011;2800;49.528;8.666;2022-08-21T00:02:50;10.07;;;4.50;;
5553;SDS011;2800;49.528;8.666;2022-08-21T00:05:24;7.93;;;4.57;;
5553;SDS011;2800;49.528;8.666;2022-08-21T00:07:50;8.00;;;4.97;;
5553;SDS011;2800;49.528;8.666;2022-08-21T00:10:16;9.70;;;5.47;;
5553;SDS011;2800;49.528;8.666;2022-08-21T00:12:44;12.13;;;4.93;;
5553;SDS011;2800;49.528;8.666;2022-08-21T00:15:11;10.73;;;5.40;;
5553;SDS011;2800;49.528;8.666;2022-08-21T00:17:39;10.87;;;5.30;;
5553;SDS011;2800;49.528;8.666;2022-08-21T00:20:06;8.43;;;5.03;;
5553;SDS011;2800;49.528;8.666;2022-08-21T00:22:33;9.63;;;5.27;;
5553;SDS011;2800;49.528;8.666;2022-08-21T00:24:59;16.23;;;5.90;;
5553;SDS011;2800;49.528;8.666;2022-08-21T00:27:25;10.10;;;5.00;;
5553;SDS011;2800;49.528;8.666;2022-08-21T00:29:51;9.13;;;5.10;;
5553;SDS011;2800;49.528;8.666;2022-08-21T00:32:21;7.30;;;5.17;;
5553;SDS011;2800;49.528;8.666;2022-08-21T00:34:48;9.13;;;5.10;;
5553;SDS011;2800;49.528;8.666;2022-08-21T00:37:13;10.50;;;5.40;;
5553;SDS011;2800;49.528;8.666;2022-08-21T00:39:39;7.53;;;4.63;;
5553;SDS011;2800;49.528;8.666;2022-08-21T00:42:04;8.20;;;4.90;;
5553;SDS011;2800;49.528;8.666;2022-08-21T00:44:30;10.40;;;5.30;;
5553;SDS011;2800;49.528;8.666;2022-08-21T00:46:56;10.67;;;5.23;;
5553;SDS011;2800;49.528;8.666;2022-08-21T00:49:22;9.97;;;5.50;;
5553;SDS011;2800;49.528;8.666;2022-08-21T00:51:49;10.33;;;5.20;;
5553;SDS011;2800;49.528;8.666;2022-08-21T00:54:20;8.20;;;5.30;;
5553;SDS011;2800;49.528;8.666;2022-08-21T00:56:50;14.43;;;5.40;;
5553;SDS011;2800;49.528;8.666;2022-08-21T00:59:20;9.50;;;5.50;;
5553;SDS011;2800;49.528;8.666;2022-08-21T01:01:47;8.50;;;5.10;;
5553;SDS011;2800;49.528;8.666;2022-08-21T01:04:14;8.87;;;5.17;;
5553;SDS011;2800;49.528;8.666;2022-08-21T01:06:41;8.23;;;4.80;;
5553;SDS011;2800;49.528;8.666;2022-08-21T01:09:06;15.27;;;5.30;;
5553;SDS011;2800;49.528;8.666;2022-08-21T01:11:32;8.70;;;5.00;;
5553;SDS011;2800;49.528;8.666;2022-08-21T01:13:58;11.60;;;5.90;;
5553;SDS011;2800;49.528;8.666;2022-08-21T01:16:24;9.07;;;5.30;;
5553;SDS011;2800;49.528;8.666;2022-08-21T01:18:50;11.80;;;5.07;;
5553;SDS011;2800;49.528;8.666;2022-08-21T01:21:18;8.47;;;5.73;;
5553;SDS011;2800;49.528;8.666;2022-08-21T01:23:47;25.13;;;5.40;;
5553;SDS011;2800;49.528;8.666;2022-08-21T01:26:15;7.90;;;5.20;;
5553;SDS011;2800;49.528;8.666;2022-08-21T01:28:49;11.10;;;5.57;;
5553;SDS011;2800;49.528;8.666;2022-08-21T01:31:36;8.77;;;5.17;;
5553;SDS011;2800;49.528;8.666;2022-08-21T01:34:03;11.13;;;5.80;;
5553;SDS011;2800;49.528;8.666;2022-08-21T01:36:29;9.17;;;5.70;;
5553;SDS011;2800;49.528;8.666;2022-08-21T01:38:55;9.17;;;5.60;;
5553;SDS011;2800;49.528;8.666;2022-08-21T01:41:21;11.47;;;5.80;;
5553;SDS011;2800;49.528;8.666;2022-08-21T01:43:46;9.20;;;6.37;;
5553;SDS011;2800;49.528;8.666;2022-08-21T01:46:13;14.17;;;5.67;;
5553;SDS011;2800;49.528;8.666;2022-08-21T01:48:39;9.43;;;5.90;;
5553;SDS011;2800;49.528;8.666;2022-08-21T01:51:05;10.93;;;6.07;;
5553;SDS011;2800;49.528;8.666;2022-08-21T01:53:31;9.07;;;5.90;;
5553;SDS011;2800;49.528;8.666;2022-08-21T01:56:00;11.20;;;6.20;;
5553;SDS011;2800;49.528;8.666;2022-08-21T01:58:27;11.83;;;5.93;;
5553;SDS011;2800;49.528;8.666;2022-08-21T02:00:52;9.97;;;5.77;;
5553;SDS011;2800;49.528;8.666;2022-08-21T02:03:18;9.80;;;6.53;;
5553;SDS011;2800;49.528;8.666;2022-08-21T02:05:44;12.10;;;7.10;;
5553;SDS011;2800;49.528;8.666;2022-08-21T02:08:09;11.57;;;6.63;;
5553;SDS011;2800;49.528;8.666;2022-08-21T02:10:35;10.87;;;6.00;;
5553;SDS011;2800;49.528;8.666;2022-08-21T02:13:00;11.53;;;6.47;;
5553;SDS011;2800;49.528;8.666;2022-08-21T02:15:27;11.40;;;5.70;;
5553;SDS011;2800;49.528;8.666;2022-08-21T02:17:55;12.10;;;6.53;;
5553;SDS011;2800;49.528;8.666;2022-08-21T02:22:53;10.93;;;6.20;;
5553;SDS011;2800;49.528;8.666;2022-08-21T02:25:20;13.80;;;6.33;;
5553;SDS011;2800;49.528;8.666;2022-08-21T02:27:47;10.37;;;6.20;;
5553;SDS011;2800;49.528;8.666;2022-08-21T02:30:16;10.13;;;6.17;;
5553;SDS011;2800;49.528;8.666;2022-08-21T02:32:46;12.03;;;7.10;;
5553;SDS011;2800;49.528;8.666;2022-08-21T02:35:12;11.33;;;6.67;;
5553;SDS011;2800;49.528;8.666;2022-08-21T02:37:45;13.13;;;6.60;;
5553;SDS011;2800;49.528;8.666;2022-08-21T02:40:14;10.37;;;6.20;;
5553;SDS011;2800;49.528;8.666;2022-08-21T02:42:41;13.13;;;6.27;;
5553;SDS011;2800;49.528;8.666;2022-08-21T02:45:08;15.60;;;6.77;;
5553;SDS011;2800;49.528;8.666;2022-08-21T02:47:34;12.93;;;7.03;;
5553;SDS011;2800;49.528;8.666;2022-08-21T02:50:00;11.47;;;7.30;;
5553;SDS011;2800;49.528;8.666;2022-08-21T02:52:26;13.43;;;7.33;;
5553;SDS011;2800;49.528;8.666;2022-08-21T02:54:51;10.60;;;6.90;;
5553;SDS011;2800;49.528;8.666;2022-08-21T02:57:17;10.00;;;6.93;;
5553;SDS011;2800;49.528;8.666;2022-08-21T02:59:42;13.03;;;6.87;;
5553;SDS011;2800;49.528;8.666;2022-08-21T03:02:08;10.13;;;7.00;;
5553;SDS011;2800;49.528;8.666;2022-08-21T03:04:33;11.17;;;7.30;;
5553;SDS011;2800;49.528;8.666;2022-08-21T03:06:59;9.50;;;6.77;;
5553;SDS011;2800;49.528;8.666;2022-08-21T03:09:25;9.97;;;6.80;;
5553;SDS011;2800;49.528;8.666;2022-08-21T03:11:50;11.60;;;6.90;;
5553;SDS011;2800;49.528;8.666;2022-08-21T03:14:17;11.27;;;6.43;;
5553;SDS011;2800;49.528;8.666;2022-08-21T03:16:43;11.20;;;6.70;;
5553;SDS011;2800;49.528;8.666;2022-08-21T03:19:09;11.47;;;7.00;;
5553;SDS011;2800;49.528;8.666;2022-08-21T03:21:34;11.20;;;6.90;;
5553;SDS011;2800;49.528;8.666;2022-08-21T03:24:00;11.73;;;7.07;;
5553;SDS011;2800;49.528;8.666;2022-08-21T03:26:25;10.87;;;6.80;;
5553;SDS011;2800;49.528;8.666;2022-08-21T03:28:51;12.27;;;6.70;;
5553;SDS011;2800;49.528;8.666;2022-08-21T03:31:17;9.67;;;7.00;;
5553;SDS011;2800;49.528;8.666;2022-08-21T03:33:43;12.57;;;7.10;;
5553;SDS011;2800;49.528;8.666;2022-08-21T03:36:09;11.90;;;7.27;;
5553;SDS011;2800;49.528;8.666;2022-08-21T03:38:35;12.63;;;7.00;;
5553;SDS011;2800;49.528;8.666;2022-08-21T03:41:02;13.87;;;7.57;;
5553;SDS011;2800;49.528;8.666;2022-08-21T03:43:29;11.00;;;6.53;;
5553;SDS011;2800;49.528;8.666;2022-08-21T03:45:55;12.40;;;7.20;;
5553;SDS011;2800;49.528;8.666;2022-08-21T03:48:20;11.23;;;6.97;;
5553;SDS011;2800;49.528;8.666;2022-08-21T03:50:46;11.10;;;6.50;;
5553;SDS011;2800;49.528;8.666;2022-08-21T03:53:14;14.07;;;6.70;;
5553;SDS011;2800;49.528;8.666;2022-08-21T03:55:41;11.97;;;6.80;;
5553;SDS011;2800;49.528;8.666;2022-08-21T03:58:07;15.60;;;6.90;;
5553;SDS011;2800;49.528;8.666;2022-08-21T04:00:33;16.37;;;7.40;;
5553;SDS011;2800;49.528;8.666;2022-08-21T04:02:59;13.27;;;7.43;;
5553;SDS011;2800;49.528;8.666;2022-08-21T04:05:25;11.90;;;7.07;;
5553;SDS011;2800;49.528;8.666;2022-08-21T04:07:58;13.70;;;6.90;;
5553;SDS011;2800;49.528;8.666;2022-08-21T04:10:27;19.83;;;7.23;;
5553;SDS011;2800;49.528;8.666;2022-08-21T04:12:55;12.37;;;7.27;;
5553;SDS011;2800;49.528;8.666;2022-08-21T04:15:21;13.10;;;7.30;;
5553;SDS011;2800;49.528;8.666;2022-08-21T04:17:48;14.27;;;8.07;;
5553;SDS011;2800;49.528;8.666;2022-08-21T04:20:15;13.83;;;7.30;;
5553;SDS011;2800;49.528;8.666;2022-08-21T04:22:41;13.90;;;7.20;;
5553;SDS011;2800;49.528;8.666;2022-08-21T04:25:07;12.00;;;7.20;;
5553;SDS011;2800;49.528;8.666;2022-08-21T04:27:33;14.63;;;7.37;;
5553;SDS011;2800;49.528;8.666;2022-08-21T04:29:59;15.53;;;7.37;;
5553;SDS011;2800;49.528;8.666;2022-08-21T04:32:25;12.10;;;7.50;;
5553;SDS011;2800;49.528;8.666;2022-08-21T04:34:57;13.87;;;7.50;;
5553;SDS011;2800;49.528;8.666;2022-08-21T04:37:28;12.77;;;7.20;;
5553;SDS011;2800;49.528;8.666;2022-08-21T04:39:54;13.43;;;7.40;;
5553;SDS011;2800;49.528;8.666;2022-08-21T04:42:22;16.97;;;7.00;;
5553;SDS011;2800;49.528;8.666;2022-08-21T04:44:48;12.53;;;7.10;;
5553;SDS011;2800;49.528;8.666;2022-08-21T04:47:14;12.60;;;6.90;;
5553;SDS011;2800;49.528;8.666;2022-08-21T04:49:40;12.47;;;7.17;;
5553;SDS011;2800;49.528;8.666;2022-08-21T04:52:06;13.00;;;7.17;;
5553;SDS011;2800;49.528;8.666;2022-08-21T04:54:31;15.77;;;7.43;;
5553;SDS011;2800;49.528;8.666;2022-08-21T04:56:59;11.80;;;7.70;;
5553;SDS011;2800;49.528;8.666;2022-08-21T04:59:31;13.40;;;6.93;;
5553;SDS011;2800;49.528;8.666;2022-08-21T05:02:00;12.70;;;7.57;;
5553;SDS011;2800;49.528;8.666;2022-08-21T05:04:28;14.47;;;7.27;;
5553;SDS011;2800;49.528;8.666;2022-08-21T05:06:57;14.73;;;7.67;;
5553;SDS011;2800;49.528;8.666;2022-08-21T05:09:27;13.43;;;7.83;;
5553;SDS011;2800;49.528;8.666;2022-08-21T05:11:53;10.80;;;7.10;;
5553;SDS011;2800;49.528;8.666;2022-08-21T05:14:20;11.20;;;6.90;;
5553;SDS011;2800;49.528;8.666;2022-08-21T05:16:45;10.30;;;6.30;;
5553;SDS011;2800;49.528;8.666;2022-08-21T05:19:11;12.57;;;7.13;;
5553;SDS011;2800;49.528;8.666;2022-08-21T05:21:38;11.93;;;6.27;;
5553;SDS011;2800;49.528;8.666;2022-08-21T05:24:06;14.40;;;6.77;;
5553;SDS011;2800;49.528;8.666;2022-08-21T05:26:32;13.10;;;7.30;;
5553;SDS011;2800;49.528;8.666;2022-08-21T05:28:57;14.40;;;6.47;;
5553;SDS011;2800;49.528;8.666;2022-08-21T05:31:23;12.97;;;6.60;;
5553;SDS011;2800;49.528;8.666;2022-08-21T05:33:49;12.33;;;6.63;;
5553;SDS011;2800;49.528;8.666;2022-08-21T05:36:14;14.80;;;6.47;;
5553;SDS011;2800;49.528;8.666;2022-08-21T05:38:41;17.90;;;6.53;;
5553;SDS011;2800;49.528;8.666;2022-08-21T05:41:06;11.70;;;6.63;;
5553;SDS011;2800;49.528;8.666;2022-08-21T05:43:32;9.57;;;5.90;;
5553;SDS011;2800;49.528;8.666;2022-08-21T05:46:01;10.73;;;6.07;;
5553;SDS011;2800;49.528;8.666;2022-08-21T05:48:33;11.30;;;6.10;;
5553;SDS011;2800;49.528;8.666;2022-08-21T05:51:07;14.07;;;5.93;;
5553;SDS011;2800;49.528;8.666;2022-08-21T05:53:35;12.60;;;5.83;;
5553;SDS011;2800;49.528;8.666;2022-08-21T05:56:01;13.33;;;6.20;;
5553;SDS011;2800;49.528;8.666;2022-08-21T05:58:28;9.50;;;5.77;;
5553;SDS011;2800;49.528;8.666;2022-08-21T06:00:55;12.80;;;6.30;;
5553;SDS011;2800;49.528;8.666;2022-08-21T06:03:24;15.03;;;6.50;;
5553;SDS011;2800;49.528;8.666;2022-08-21T06:05:51;13.47;;;6.10;;
5553;SDS011;2800;49.528;8.666;2022-08-21T06:08:18;10.33;;;6.07;;
5553;SDS011;2800;49.528;8.666;2022-08-21T06:10:45;10.13;;;5.73;;
5553;SDS011;2800;49.528;8.666;2022-08-21T06:13:11;12.23;;;6.10;;
5553;SDS011;2800;49.528;8.666;2022-08-21T06:15:37;12.70;;;5.80;;
5553;SDS011;2800;49.528;8.666;2022-08-21T06:18:03;12.67;;;6.07;;
5553;SDS011;2800;49.528;8.666;2022-08-21T06:20:29;9.77;;;6.03;;
5553;SDS011;2800;49.528;8.666;2022-08-21T06:22:55;10.67;;;5.87;;
5553;SDS011;2800;49.528;8.666;2022-08-21T06:25:20;15.07;;;6.73;;
5553;SDS011;2800;49.528;8.666;2022-08-21T06:27:46;10.47;;;6.03;;
5553;SDS011;2800;49.528;8.666;2022-08-21T06:30:12;11.77;;;5.83;;
5553;SDS011;2800;49.528;8.666;2022-08-21T06:32:37;13.20;;;7.27;;
5553;SDS011;2800;49.528;8.666;2022-08-21T06:35:03;12.60;;;6.30;;
5553;SDS011;2800;49.528;8.666;2022-08-21T06:37:30;11.47;;;6.30;;
5553;SDS011;2800;49.528;8.666;2022-08-21T06:39:56;10.93;;;5.90;;
5553;SDS011;2800;49.528;8.666;2022-08-21T06:42:21;10.83;;;6.30;;
5553;SDS011;2800;49.528;8.666;2022-08-21T06:44:47;11.43;;;5.83;;
5553;SDS011;2800;49.528;8.666;2022-08-21T06:47:13;15.33;;;6.23;;
5553;SDS011;2800;49.528;8.666;2022-08-21T06:49:39;16.93;;;6.27;;
5553;SDS011;2800;49.528;8.666;2022-08-21T06:52:08;11.63;;;6.10;;
5553;SDS011;2800;49.528;8.666;2022-08-21T06:54:37;16.33;;;6.17;;
5553;SDS011;2800;49.528;8.666;2022-08-21T06:57:04;13.70;;;6.73;;
5553;SDS011;2800;49.528;8.666;2022-08-21T06:59:30;11.70;;;6.10;;
5553;SDS011;2800;49.528;8.666;2022-08-21T07:01:56;11.07;;;6.57;;
5553;SDS011;2800;49.528;8.666;2022-08-21T07:04:22;11.47;;;5.87;;
5553;SDS011;2800;49.528;8.666;2022-08-21T07:06:48;14.77;;;6.67;;
5553;SDS011;2800;49.528;8.666;2022-08-21T07:09:13;12.00;;;6.60;;
5553;SDS011;2800;49.528;8.666;2022-08-21T07:11:39;14.00;;;6.20;;
5553;SDS011;2800;49.528;8.666;2022-08-21T07:14:06;13.57;;;6.53;;
5553;SDS011;2800;49.528;8.666;2022-08-21T07:16:31;10.67;;;5.53;;
5553;SDS011;2800;49.528;8.666;2022-08-21T07:18:57;14.07;;;5.77;;
5553;SDS011;2800;49.528;8.666;2022-08-21T07:21:22;10.00;;;5.57;;
5553;SDS011;2800;49.528;8.666;2022-08-21T07:23:49;12.43;;;5.63;;
5553;SDS011;2800;49.528;8.666;2022-08-21T07:26:16;12.40;;;6.30;;
5553;SDS011;2800;49.528;8.666;2022-08-21T07:28:44;10.73;;;5.60;;
5553;SDS011;2800;49.528;8.666;2022-08-21T07:31:10;10.87;;;6.07;;
5553;SDS011;2800;49.528;8.666;2022-08-21T07:33:39;10.87;;;6.20;;
5553;SDS011;2800;49.528;8.666;2022-08-21T07:36:06;12.57;;;6.10;;
5553;SDS011;2800;49.528;8.666;2022-08-21T07:38:31;10.77;;;5.63;;
5553;SDS011;2800;49.528;8.666;2022-08-21T07:40:57;12.43;;;6.03;;
5553;SDS011;2800;49.528;8.666;2022-08-21T07:43:25;10.67;;;6.23;;
5553;SDS011;2800;49.528;8.666;2022-08-21T07:45:51;14.43;;;6.67;;
5553;SDS011;2800;49.528;8.666;2022-08-21T07:48:18;18.30;;;6.67;;
5553;SDS011;2800;49.528;8.666;2022-08-21T07:50:43;11.93;;;5.97;;
5553;SDS011;2800;49.528;8.666;2022-08-21T07:53:09;13.77;;;6.73;;
5553;SDS011;2800;49.528;8.666;2022-08-21T07:55:35;10.27;;;6.10;;
5553;SDS011;2800;49.528;8.666;2022-08-21T07:58:00;15.97;;;7.30;;
5553;SDS011;2800;49.528;8.666;2022-08-21T08:00:26;15.10;;;6.20;;
5553;SDS011;2800;49.528;8.666;2022-08-21T08:02:54;13.03;;;6.80;;
5553;SDS011;2800;49.528;8.666;2022-08-21T08:05:21;11.60;;;6.30;;
5553;SDS011;2800;49.528;8.666;2022-08-21T08:07:50;10.30;;;6.93;;
5553;SDS011;2800;49.528;8.666;2022-08-21T08:10:16;12.13;;;6.77;;
5553;SDS011;2800;49.528;8.666;2022-08-21T08:12:43;13.10;;;7.53;;
5553;SDS011;2800;49.528;8.666;2022-08-21T08:15:11;12.07;;;6.70;;
5553;SDS011;2800;49.528;8.666;2022-08-21T08:17:39;14.87;;;7.17;;
5553;SDS011;2800;49.528;8.666;2022-08-21T08:20:05;17.00;;;7.00;;
5553;SDS011;2800;49.528;8.666;2022-08-21T08:22:33;14.43;;;7.37;;
5553;SDS011;2800;49.528;8.666;2022-08-21T08:24:59;14.00;;;6.97;;
5553;SDS011;2800;49.528;8.666;2022-08-21T08:27:25;15.27;;;7.27;;
5553;SDS011;2800;49.528;8.666;2022-08-21T08:29:50;15.27;;;7.83;;
5553;SDS011;2800;49.528;8.666;2022-08-21T08:32:16;12.93;;;6.90;;
5553;SDS011;2800;49.528;8.666;2022-08-21T08:34:42;14.40;;;7.57;;
5553;SDS011;2800;49.528;8.666;2022-08-21T08:37:08;12.40;;;6.63;;
5553;SDS011;2800;49.528;8.666;2022-08-21T08:39:35;11.57;;;6.67;;
5553;SDS011;2800;49.528;8.666;2022-08-21T08:42:03;11.83;;;6.37;;
5553;SDS011;2800;49.528;8.666;2022-08-21T08:44:30;22.43;;;6.87;;
5553;SDS011;2800;49.528;8.666;2022-08-21T08:46:56;14.30;;;6.87;;
5553;SDS011;2800;49.528;8.666;2022-08-21T08:49:23;13.80;;;6.93;;
5553;SDS011;2800;49.528;8.666;2022-08-21T08:52:14;12.87;;;7.20;;
5553;SDS011;2800;49.528;8.666;2022-08-21T08:54:46;16.80;;;7.13;;
5553;SDS011;2800;49.528;8.666;2022-08-21T08:57:17;16.53;;;7.83;;
5553;SDS011;2800;49.528;8.666;2022-08-21T08:59:48;14.10;;;7.47;;
5553;SDS011;2800;49.528;8.666;2022-08-21T09:02:17;13.00;;;7.03;;
5553;SDS011;2800;49.528;8.666;2022-08-21T09:04:44;13.73;;;6.40;;
5553;SDS011;2800;49.528;8.666;2022-08-21T09:07:28;15.80;;;8.13;;
5553;SDS011;2800;49.528;8.666;2022-08-21T09:11:01;12.80;;;7.47;;
5553;SDS011;2800;49.528;8.666;2022-08-21T09:18:55;17.80;;;7.60;;
5553;SDS011;2800;49.528;8.666;2022-08-21T09:21:37;16.80;;;8.13;;
5553;SDS011;2800;49.528;8.666;2022-08-21T09:27:12;12.83;;;7.47;;
5553;SDS011;2800;49.528;8.666;2022-08-21T09:29:41;15.63;;;6.87;;
5553;SDS011;2800;49.528;8.666;2022-08-21T09:32:10;13.57;;;7.20;;
5553;SDS011;2800;49.528;8.666;2022-08-21T09:37:53;21.60;;;11.30;;
5553;SDS011;2800;49.528;8.666;2022-08-21T09:45:36;16.93;;;7.40;;
5553;SDS011;2800;49.528;8.666;2022-08-21T09:48:23;18.30;;;8.20;;
5553;SDS011;2800;49.528;8.666;2022-08-21T09:50:50;15.13;;;6.20;;
5553;SDS011;2800;49.528;8.666;2022-08-21T09:53:19;13.33;;;5.80;;
5553;SDS011;2800;49.528;8.666;2022-08-21T09:55:57;15.17;;;5.83;;
5553;SDS011;2800;49.528;8.666;2022-08-21T09:58:59;13.87;;;5.70;;
5553;SDS011;2800;49.528;8.666;2022-08-21T10:01:25;14.80;;;5.50;;
5553;SDS011;2800;49.528;8.666;2022-08-21T10:07:06;17.23;;;4.80;;
5553;SDS011;2800;49.528;8.666;2022-08-21T10:09:33;9.67;;;4.70;;
5553;SDS011;2800;49.528;8.666;2022-08-21T10:12:07;14.67;;;4.50;;
5553;SDS011;2800;49.528;8.666;2022-08-21T10:22:45;16.37;;;5.50;;
5553;SDS011;2800;49.528;8.666;2022-08-21T10:29:11;16.07;;;4.83;;
5553;SDS011;2800;49.528;8.666;2022-08-21T10:31:20;9.77;;;4.90;;
5553;SDS011;2800;49.528;8.666;2022-08-21T10:44:37;10.50;;;4.33;;
5553;SDS011;2800;49.528;8.666;2022-08-21T10:47:38;12.50;;;4.97;;
5553;SDS011;2800;49.528;8.666;2022-08-21T10:50:22;11.93;;;4.60;;
5553;SDS011;2800;49.528;8.666;2022-08-21T10:53:05;10.57;;;5.57;;
5553;SDS011;2800;49.528;8.666;2022-08-21T10:55:41;9.17;;;5.13;;
5553;SDS011;2800;49.528;8.666;2022-08-21T10:58:29;15.67;;;5.97;;
5553;SDS011;2800;49.528;8.666;2022-08-21T11:00:58;9.17;;;4.77;;
5553;SDS011;2800;49.528;8.666;2022-08-21T11:03:33;10.37;;;5.00;;
5553;SDS011;2800;49.528;8.666;2022-08-21T11:06:09;12.20;;;4.83;;
5553;SDS011;2800;49.528;8.666;2022-08-21T11:08:43;12.23;;;4.70;;
5553;SDS011;2800;49.528;8.666;2022-08-21T11:11:18;7.80;;;4.50;;
5553;SDS011;2800;49.528;8.666;2022-08-21T11:13:54;13.30;;;4.97;;
5553;SDS011;2800;49.528;8.666;2022-08-21T11:16:36;13.13;;;5.87;;
5553;SDS011;2800;49.528;8.666;2022-08-21T11:19:22;13.00;;;5.20;;
5553;SDS011;2800;49.528;8.666;2022-08-21T11:27:28;12.90;;;5.27;;
5553;SDS011;2800;49.528;8.666;2022-08-21T11:30:04;13.90;;;5.23;;
5553;SDS011;2800;49.528;8.666;2022-08-21T11:48:55;10.10;;;4.83;;
5553;SDS011;2800;49.528;8.666;2022-08-21T11:51:52;10.00;;;4.53;;
5553;SDS011;2800;49.528;8.666;2022-08-21T11:54:31;10.80;;;4.73;;
5553;SDS011;2800;49.528;8.666;2022-08-21T11:57:02;12.73;;;4.80;;
5553;SDS011;2800;49.528;8.666;2022-08-21T11:59:39;11.17;;;4.13;;
5553;SDS011;2800;49.528;8.666;2022-08-21T12:02:13;12.23;;;4.47;;
5553;SDS011;2800;49.528;8.666;2022-08-21T12:04:53;8.13;;;3.90;;
5553;SDS011;2800;49.528;8.666;2022-08-21T12:07:40;9.23;;;3.77;;
5553;SDS011;2800;49.528;8.666;2022-08-21T12:10:10;12.07;;;4.20;;
5553;SDS011;2800;49.528;8.666;2022-08-21T12:12:42;13.93;;;3.77;;
5553;SDS011;2800;49.528;8.666;2022-08-21T12:15:24;8.53;;;4.30;;
5553;SDS011;2800;49.528;8.666;2022-08-21T12:18:00;8.80;;;3.70;;
5553;SDS011;2800;49.528;8.666;2022-08-21T12:25:43;7.43;;;3.90;;
5553;SDS011;2800;49.528;8.666;2022-08-21T12:28:23;7.60;;;3.83;;
5553;SDS011;2800;49.528;8.666;2022-08-21T12:30:50;11.60;;;4.00;;
5553;SDS011;2800;49.528;8.666;2022-08-21T12:36:04;12.13;;;4.37;;
5553;SDS011;2800;49.528;8.666;2022-08-21T12:38:51;7.87;;;3.50;;
5553;SDS011;2800;49.528;8.666;2022-08-21T12:41:27;9.70;;;4.00;;
5553;SDS011;2800;49.528;8.666;2022-08-21T12:46:34;9.30;;;4.00;;
5553;SDS011;2800;49.528;8.666;2022-08-21T12:49:51;11.60;;;4.17;;
5553;SDS011;2800;49.528;8.666;2022-08-21T12:52:01;8.63;;;3.97;;
5553;SDS011;2800;49.528;8.666;2022-08-21T12:54:42;8.03;;;3.90;;
5553;SDS011;2800;49.528;8.666;2022-08-21T12:57:17;10.27;;;4.00;;
5553;SDS011;2800;49.528;8.666;2022-08-21T12:59:44;8.13;;;3.80;;
5553;SDS011;2800;49.528;8.666;2022-08-21T13:02:15;9.00;;;4.20;;
5553;SDS011;2800;49.528;8.666;2022-08-21T13:04:43;12.07;;;4.20;;
5553;SDS011;2800;49.528;8.666;2022-08-21T13:07:11;7.05;;;3.97;;
5553;SDS011;2800;49.528;8.666;2022-08-21T13:09:56;11.77;;;4.03;;
5553;SDS011;2800;49.528;8.666;2022-08-21T13:12:31;8.85;;;4.18;;
5553;SDS011;2800;49.528;8.666;2022-08-21T13:15:00;9.50;;;3.77;;
5553;SDS011;2800;49.528;8.666;2022-08-21T13:17:30;9.67;;;4.03;;
5553;SDS011;2800;49.528;8.666;2022-08-21T13:20:00;10.27;;;4.20;;
5553;SDS011;2800;49.528;8.666;2022-08-21T13:22:46;7.73;;;4.17;;
5553;SDS011;2800;49.528;8.666;2022-08-21T13:25:13;7.90;;;4.23;;
5553;SDS011;2800;49.528;8.666;2022-08-21T13:27:44;9.50;;;4.20;;
5553;SDS011;2800;49.528;8.666;2022-08-21T13:30:21;10.50;;;4.60;;
5553;SDS011;2800;49.528;8.666;2022-08-21T13:32:48;10.73;;;4.67;;
5553;SDS011;2800;49.528;8.666;2022-08-21T13:35:18;12.87;;;4.50;;
5553;SDS011;2800;49.528;8.666;2022-08-21T13:38:07;7.70;;;4.17;;
5553;SDS011;2800;49.528;8.666;2022-08-21T13:40:39;17.43;;;4.60;;
5553;SDS011;2800;49.528;8.666;2022-08-21T13:43:17;11.23;;;4.30;;
5553;SDS011;2800;49.528;8.666;2022-08-21T13:45:50;9.43;;;4.10;;
5553;SDS011;2800;49.528;8.666;2022-08-21T13:48:17;8.13;;;4.20;;
5553;SDS011;2800;49.528;8.666;2022-08-21T13:50:44;9.37;;;4.20;;
5553;SDS011;2800;49.528;8.666;2022-08-21T13:53:26;8.73;;;4.23;;
5553;SDS011;2800;49.528;8.666;2022-08-21T13:55:52;8.70;;;4.57;;
5553;SDS011;2800;49.528;8.666;2022-08-21T13:58:52;14.13;;;4.10;;
5553;SDS011;2800;49.528;8.666;2022-08-21T14:01:26;10.40;;;4.47;;
5553;SDS011;2800;49.528;8.666;2022-08-21T14:03:56;9.67;;;4.30;;
5553;SDS011;2800;49.528;8.666;2022-08-21T14:06:27;10.43;;;4.03;;
5553;SDS011;2800;49.528;8.666;2022-08-21T14:08:58;8.17;;;4.10;;
5553;SDS011;2800;49.528;8.666;2022-08-21T14:11:26;9.47;;;4.47;;
5553;SDS011;2800;49.528;8.666;2022-08-21T14:13:58;8.93;;;4.23;;
5553;SDS011;2800;49.528;8.666;2022-08-21T14:16:28;7.27;;;3.93;;
5553;SDS011;2800;49.528;8.666;2022-08-21T14:19:10;13.07;;;4.57;;
5553;SDS011;2800;49.528;8.666;2022-08-21T14:21:43;6.80;;;3.83;;
5553;SDS011;2800;49.528;8.666;2022-08-21T14:24:11;8.43;;;4.33;;
5553;SDS011;2800;49.528;8.666;2022-08-21T14:26:46;9.63;;;3.93;;
5553;SDS011;2800;49.528;8.666;2022-08-21T14:29:31;11.73;;;4.43;;
5553;SDS011;2800;49.528;8.666;2022-08-21T14:32:07;9.70;;;4.20;;
5553;SDS011;2800;49.528;8.666;2022-08-21T14:34:41;9.10;;;4.30;;
5553;SDS011;2800;49.528;8.666;2022-08-21T14:37:07;9.90;;;4.20;;
5553;SDS011;2800;49.528;8.666;2022-08-21T14:39:32;7.50;;;3.73;;
5553;SDS011;2800;49.528;8.666;2022-08-21T14:41:58;9.68;;;4.40;;
5553;SDS011;2800;49.528;8.666;2022-08-21T14:44:25;9.98;;;4.20;;
5553;SDS011;2800;49.528;8.666;2022-08-21T14:46:51;12.60;;;4.07;;
5553;SDS011;2800;49.528;8.666;2022-08-21T14:49:17;9.68;;;4.32;;
5553;SDS011;2800;49.528;8.666;2022-08-21T14:51:42;10.20;;;4.55;;
5553;SDS011;2800;49.528;8.666;2022-08-21T14:54:08;8.00;;;4.37;;
5553;SDS011;2800;49.528;8.666;2022-08-21T14:56:34;8.60;;;4.17;;
5553;SDS011;2800;49.528;8.666;2022-08-21T14:59:02;8.70;;;4.07;;
5553;SDS011;2800;49.528;8.666;2022-08-21T15:01:30;11.40;;;4.07;;
5553;SDS011;2800;49.528;8.666;2022-08-21T15:03:59;9.53;;;3.90;;
5553;SDS011;2800;49.528;8.666;2022-08-21T15:06:24;10.13;;;3.95;;
5553;SDS011;2800;49.528;8.666;2022-08-21T15:08:50;8.32;;;4.00;;
5553;SDS011;2800;49.528;8.666;2022-08-21T15:11:16;7.43;;;4.07;;
5553;SDS011;2800;49.528;8.666;2022-08-21T15:13:44;8.83;;;4.07;;
5553;SDS011;2800;49.528;8.666;2022-08-21T15:16:10;8.97;;;4.57;;
5553;SDS011;2800;49.528;8.666;2022-08-21T15:18:36;7.47;;;4.00;;
5553;SDS011;2800;49.528;8.666;2022-08-21T15:21:02;8.73;;;3.93;;
5553;SDS011;2800;49.528;8.666;2022-08-21T15:23:28;10.00;;;4.13;;
5553;SDS011;2800;49.528;8.666;2022-08-21T15:25:54;7.77;;;4.53;;
5553;SDS011;2800;49.528;8.666;2022-08-21T15:28:22;9.30;;;4.80;;
5553;SDS011;2800;49.528;8.666;2022-08-21T15:30:49;9.13;;;3.80;;
5553;SDS011;2800;49.528;8.666;2022-08-21T15:33:16;8.37;;;4.17;;
5553;SDS011;2800;49.528;8.666;2022-08-21T15:35:42;9.27;;;4.10;;
5553;SDS011;2800;49.528;8.666;2022-08-21T15:38:08;11.90;;;4.53;;
5553;SDS011;2800;49.528;8.666;2022-08-21T15:40:34;8.13;;;4.03;;
5553;SDS011;2800;49.528;8.666;2022-08-21T15:43:01;8.33;;;4.17;;
5553;SDS011;2800;49.528;8.666;2022-08-21T15:45:28;10.80;;;4.00;;
5553;SDS011;2800;49.528;8.666;2022-08-21T15:47:54;11.77;;;4.40;;
5553;SDS011;2800;49.528;8.666;2022-08-21T15:50:21;9.37;;;4.10;;
5553;SDS011;2800;49.528;8.666;2022-08-21T15:52:48;13.07;;;4.67;;
5553;SDS011;2800;49.528;8.666;2022-08-21T15:55:14;10.10;;;4.47;;
5553;SDS011;2800;49.528;8.666;2022-08-21T15:57:44;11.33;;;4.23;;
5553;SDS011;2800;49.528;8.666;2022-08-21T16:00:13;8.50;;;4.00;;
5553;SDS011;2800;49.528;8.666;2022-08-21T16:02:48;8.20;;;4.10;;
5553;SDS011;2800;49.528;8.666;2022-08-21T16:05:17;8.57;;;3.90;;
5553;SDS011;2800;49.528;8.666;2022-08-21T16:07:45;9.37;;;4.00;;
5553;SDS011;2800;49.528;8.666;2022-08-21T16:10:11;8.30;;;3.77;;
5553;SDS011;2800;49.528;8.666;2022-08-21T16:12:40;7.50;;;3.50;;
5553;SDS011;2800;49.528;8.666;2022-08-21T16:15:10;10.47;;;4.20;;
5553;SDS011;2800;49.528;8.666;2022-08-21T16:17:39;11.80;;;3.67;;
5553;SDS011;2800;49.528;8.666;2022-08-21T16:20:09;9.97;;;4.13;;
5553;SDS011;2800;49.528;8.666;2022-08-21T16:22:37;8.80;;;4.07;;
5553;SDS011;2800;49.528;8.666;2022-08-21T16:25:03;8.00;;;4.00;;
5553;SDS011;2800;49.528;8.666;2022-08-21T16:27:30;10.03;;;4.40;;
5553;SDS011;2800;49.528;8.666;2022-08-21T16:29:55;7.90;;;3.70;;
5553;SDS011;2800;49.528;8.666;2022-08-21T16:32:21;9.93;;;4.03;;
5553;SDS011;2800;49.528;8.666;2022-08-21T16:34:47;12.13;;;3.50;;